Time;durP1;ratioP1;P1;durP2;ratioP2;P2;SDS_P1;SDS_P2;PMS_P1;PMS_P2;Temp;Humidity;BMP_temperature;BMP_pressure;BME280_temperature;BME280_humidity;BME280_pressure;Samples;Min_cycle;Max_cycle;Signal;HPM_P1;HPM_P2
2023/09/14 00:18:57;;;;;;;5.65;3.88;;;;;;;25.27;48.46;100032.31;42009107;27;20036;-74
2023/09/14 00:38:58;;;;;;;7.20;3.00;;;;;;;25.27;47.92;100021.72;42017088;27;20044;-73
2023/09/14 00:58:59;;;;;;;5.03;2.85;;;;;;;25.28;48.04;99999.53;42003900;27;20178;-74
2023/09/14 01:19:15;;;;;;;4.00;2.92;;;;;;;25.21;48.94;99995.84;41999101;27;20040;-74
2023/09/14 01:39:17;;;;;;;5.00;3.08;;;;;;;25.02;49.63;99978.31;42001112;27;20138;-74
2023/09/14 01:59:20;;;;;;;4.70;3.30;;;;;;;25.03;49.95;99969.38;41988791;28;20128;-74
2023/09/14 02:19:20;;;;;;;5.00;3.60;;;;;;;24.77;50.93;99956.94;41998581;28;20052;-74
2023/09/14 02:39:21;;;;;;;5.50;3.30;;;;;;;24.74;51.26;99999.59;41993561;27;20051;-73
2023/09/14 02:59:21;;;;;;;5.10;3.28;;;;;;;24.62;51.75;100017.50;42001172;27;20120;-75
2023/09/14 03:19:21;;;;;;;4.75;3.13;;;;;;;24.42;52.21;100007.03;42003664;27;20055;-74
2023/09/14 03:39:22;;;;;;;3.13;2.78;;;;;;;24.44;52.47;100026.25;42029913;28;20515;-73
2023/09/14 03:59:22;;;;;;;3.40;3.10;;;;;;;24.31;52.68;100028.41;42025035;27;20468;-75
2023/09/14 04:19:27;;;;;;;5.38;3.58;;;;;;;24.33;52.71;100042.34;41971562;27;20044;-73
2023/09/14 04:39:28;;;;;;;4.35;3.92;;;;;;;24.10;52.86;100023.38;41968822;27;20040;-71
2023/09/14 04:59:28;;;;;;;7.22;4.20;;;;;;;24.31;53.47;100091.91;41964990;28;20051;-74
2023/09/14 05:19:29;;;;;;;5.85;3.70;;;;;;;23.71;53.56;100039.38;41964802;28;20072;-75
2023/09/14 05:39:30;;;;;;;8.32;3.95;;;;;;;23.97;54.47;100103.06;41946794;27;20052;-75
2023/09/14 05:59:30;;;;;;;6.55;3.08;;;;;;;24.20;53.41;100137.91;41960390;28;20044;-76
2023/09/14 06:19:30;;;;;;;4.20;3.80;;;;;;;24.03;53.45;100113.03;41991714;28;20044;-75
2023/09/14 06:39:31;;;;;;;7.15;4.35;;;;;;;23.82;54.31;100108.75;41990054;27;20127;-75
2023/09/14 06:59:31;;;;;;;6.68;4.10;;;;;;;23.99;54.22;100140.78;42002273;28;20449;-76
2023/09/14 07:19:32;;;;;;;7.35;4.57;;;;;;;24.26;53.44;100142.63;42005752;27;20174;-76
2023/09/14 07:39:33;;;;;;;8.57;4.47;;;;;;;24.58;53.36;100194.34;42023117;28;20054;-77
2023/09/14 07:59:33;;;;;;;5.90;4.70;;;;;;;24.30;53.98;100217.25;42054901;28;20070;-79
2023/09/14 08:19:33;;;;;;;7.32;4.80;;;;;;;24.51;53.81;100221.50;42006340;27;20056;-78
2023/09/14 08:39:34;;;;;;;10.65;5.38;;;;;;;24.63;53.69;100246.81;42037951;27;20143;-82
2023/09/14 08:59:37;;;;;;;8.88;5.03;;;;;;;25.07;53.63;100247.09;42053139;28;20060;-81
2023/09/14 09:19:48;;;;;;;7.07;4.53;;;;;;;25.19;50.22;100217.72;42070806;28;20131;-80
2023/09/14 09:39:49;;;;;;;7.57;4.07;;;;;;;25.11;48.91;100244.97;42001897;27;20075;-78
2023/09/14 09:59:50;;;;;;;5.85;4.22;;;;;;;25.25;49.19;100210.03;42023958;28;20044;-77
2023/09/14 10:19:51;;;;;;;5.85;4.03;;;;;;;25.16;50.07;100210.91;42045288;28;20045;-75
2023/09/14 10:39:53;;;;;;;6.20;4.28;;;;;;;25.56;50.50;100214.97;42048150;27;20044;-77
2023/09/14 10:59:58;;;;;;;7.47;4.40;;;;;;;26.10;50.76;100229.16;42079961;28;20048;-77
2023/09/14 11:19:59;;;;;;;6.32;4.07;;;;;;;26.15;50.45;100211.81;42102506;27;20617;-81
2023/09/14 11:40:02;;;;;;;8.88;4.25;;;;;;;25.90;49.15;100218.72;42068570;28;20051;-76
2023/09/14 12:00:05;;;;;;;6.45;4.15;;;;;;;26.04;48.76;100233.25;42089449;28;20120;-77
2023/09/14 12:20:11;;;;;;;8.57;3.67;;;;;;;26.06;48.64;100239.22;42072163;28;20838;-78
2023/09/14 12:40:12;;;;;;;7.15;3.05;;;;;;;25.75;49.43;100194.56;42079066;27;20085;-77
2023/09/14 13:00:14;;;;;;;12.85;2.90;;;;;;;25.89;49.72;100233.81;42104252;28;20118;-77
2023/09/14 13:20:15;;;;;;;9.00;2.55;;;;;;;26.43;48.89;100262.06;42066198;27;20063;-77
2023/09/14 14:00:18;;;;;;;5.25;2.28;;;;;;;26.09;48.57;100238.97;42017896;27;20036;-81
2023/09/14 14:20:21;;;;;;;4.38;1.73;;;;;;;26.07;48.23;100258.69;42051018;27;20131;-75
2023/09/14 14:40:22;;;;;;;7.82;3.00;;;;;;;26.10;48.26;100328.19;42035054;27;20089;-72
2023/09/14 15:00:23;;;;;;;6.43;3.00;;;;;;;26.50;49.56;100360.50;41984380;27;20062;-76
2023/09/14 15:20:26;;;;;;;7.32;2.70;;;;;;;25.80;50.59;100290.41;42004805;28;20081;-76
2023/09/14 15:40:28;;;;;;;4.70;2.42;;;;;;;26.34;51.38;100378.00;42050811;28;20044;-79
2023/09/14 16:00:31;;;;;;;3.03;2.72;;;;;;;25.91;52.52;100379.56;42053198;28;20091;-81
2023/09/14 16:20:31;;;;;;;6.22;2.70;;;;;;;25.77;52.97;100362.34;42065070;28;20054;-76
2023/09/14 16:40:36;;;;;;;11.10;3.38;;;;;;;25.75;53.17;100445.69;42053806;27;20055;-81
2023/09/14 17:00:38;;;;;;;3.28;2.67;;;;;;;25.87;53.46;100424.09;42052394;28;20051;-76
2023/09/14 17:20:41;;;;;;;7.65;3.38;;;;;;;25.48;53.40;100432.28;42008594;28;20047;-77
2023/09/14 17:40:50;;;;;;;6.80;3.55;;;;;;;25.33;53.71;100444.28;42032572;28;20049;-79
2023/09/14 18:00:50;;;;;;;4.82;2.85;;;;;;;25.62;53.30;100476.06;42012701;27;20051;-76
2023/09/14 18:20:54;;;;;;;7.53;3.95;;;;;;;24.96;54.42;100464.47;41986322;28;20044;-78
2023/09/14 18:41:02;;;;;;;5.72;3.10;;;;;;;25.12;54.66;100526.63;41985216;27;20041;-74
2023/09/14 19:01:04;;;;;;;6.68;3.50;;;;;;;24.66;53.99;100471.63;41992380;28;20059;-74
2023/09/14 19:21:05;;;;;;;2.95;2.30;;;;;;;24.84;54.75;100576.84;41993197;27;20065;-74
2023/09/14 19:41:08;;;;;;;3.15;2.67;;;;;;;24.82;53.00;100579.63;42012797;27;20044;-74
2023/09/14 20:01:09;;;;;;;3.08;1.80;;;;;;;24.24;53.15;100551.22;41990271;27;20043;-74
2023/09/14 20:21:09;;;;;;;1.63;1.50;;;;;;;24.23;53.16;100565.41;41980111;27;20411;-74
2023/09/14 20:41:14;;;;;;;2.03;1.60;;;;;;;24.23;53.49;100600.66;42016841;27;20051;-75
2023/09/14 21:01:23;;;;;;;2.10;1.67;;;;;;;24.19;53.50;100579.88;42024217;28;20068;-75
2023/09/14 21:21:25;;;;;;;7.55;3.17;;;;;;;24.19;53.48;100579.88;41979056;28;20047;-74
2023/09/14 21:41:26;;;;;;;5.20;2.50;;;;;;;23.97;54.34;100581.75;42012235;27;20063;-76
2023/09/14 22:01:27;;;;;;;2.50;2.10;;;;;;;23.80;54.67;100568.16;42001079;28;20040;-76
2023/09/14 22:21:29;;;;;;;5.70;2.50;;;;;;;23.83;55.11;100580.28;42010603;28;20156;-76
2023/09/14 22:41:29;;;;;;;3.88;2.97;;;;;;;23.91;55.19;100606.91;42021409;27;20864;-76
2023/09/14 23:01:30;;;;;;;3.75;3.05;;;;;;;23.78;54.93;100599.16;42037185;27;20091;-75
2023/09/14 23:21:33;;;;;;;3.60;3.30;;;;;;;23.63;54.97;100592.53;42017705;27;20048;-77
2023/09/14 23:41:34;;;;;;;4.55;3.28;;;;;;;23.57;54.73;100585.13;42006233;27;20049;-76
